createdAt,value
2023-04-08T00:02:26.725Z,10.39
2023-04-08T00:05:16.357Z,10.39
2023-04-08T00:08:05.783Z,10.32
2023-04-08T00:10:55.239Z,10.38
2023-04-08T00:13:44.541Z,10.35
2023-04-08T00:16:35.175Z,10.38
2023-04-08T00:19:25.336Z,10.37
2023-04-08T00:22:15.137Z,10.38
2023-04-08T00:25:06.809Z,10.33
2023-04-08T00:27:56.143Z,10.35
2023-04-08T00:30:45.859Z,10.38
2023-04-08T00:33:36.725Z,10.39
2023-04-08T00:36:27.778Z,10.36
2023-04-08T00:39:17.094Z,10.33
2023-04-08T00:42:06.297Z,10.22
2023-04-08T00:44:55.564Z,10.29
2023-04-08T00:47:44.972Z,10.29
2023-04-08T00:50:35.998Z,10.27
2023-04-08T00:53:25.808Z,10.14
2023-04-08T00:56:15.152Z,10.25
2023-04-08T00:59:06.156Z,10.22
2023-04-08T01:02:07.110Z,10.25
2023-04-08T01:05:03.634Z,10.19
2023-04-08T01:07:54.797Z,10.20
2023-04-08T01:10:46.045Z,10.27
2023-04-08T01:13:41.189Z,10.29
2023-04-08T01:16:31.250Z,10.30
2023-04-08T01:19:30.598Z,10.34
2023-04-08T01:22:29.855Z,10.34
2023-04-08T01:25:23.552Z,10.35
2023-04-08T01:28:19.285Z,10.39
2023-04-08T01:31:09.451Z,10.41
2023-04-08T01:34:01.359Z,10.46
2023-04-08T01:36:52.205Z,10.49
2023-04-08T01:39:42.899Z,10.49
2023-04-08T01:42:35.291Z,10.52
2023-04-08T01:45:26.805Z,10.49
2023-04-08T01:48:17.089Z,10.50
2023-04-08T01:51:08.065Z,10.43
2023-04-08T01:53:59.184Z,10.44
2023-04-08T01:56:48.922Z,10.44
2023-04-08T01:59:41.975Z,10.42
2023-04-08T02:02:33.406Z,10.47
2023-04-08T02:05:23.191Z,10.50
2023-04-08T02:08:13.451Z,10.50
2023-04-08T02:11:02.967Z,10.49
2023-04-08T02:13:53.281Z,10.39
2023-04-08T02:16:51.568Z,10.51
2023-04-08T02:19:49.312Z,10.52
2023-04-08T02:22:45.356Z,10.45
2023-04-08T02:25:39.066Z,10.42
2023-04-08T02:28:30.415Z,10.40
2023-04-08T02:31:21.455Z,10.39
2023-04-08T02:34:12.484Z,10.25
2023-04-08T02:37:04.379Z,10.32
2023-04-08T02:39:54.567Z,10.26
2023-04-08T02:42:43.908Z,10.17
2023-04-08T02:45:36.441Z,10.21
2023-04-08T02:48:25.641Z,10.23
2023-04-08T02:51:14.939Z,10.17
2023-04-08T02:54:05.653Z,10.14
2023-04-08T02:56:55.016Z,10.17
2023-04-08T02:59:44.208Z,10.21
2023-04-08T03:02:33.580Z,10.25
2023-04-08T03:05:23.122Z,10.36
2023-04-08T03:08:12.279Z,10.38
2023-04-08T03:11:02.886Z,10.44
2023-04-08T03:13:52.061Z,10.47
2023-04-08T03:16:41.341Z,10.49
2023-04-08T03:19:30.597Z,10.50
2023-04-08T03:22:20.534Z,10.51
2023-04-08T03:25:11.912Z,10.47
2023-04-08T03:28:03.384Z,10.49
2023-04-08T03:30:52.738Z,10.45
2023-04-08T03:33:41.991Z,10.47
2023-04-08T03:36:31.344Z,10.46
2023-04-08T03:39:21.430Z,10.39
2023-04-08T03:42:10.689Z,10.41
2023-04-08T03:45:01.277Z,10.12
2023-04-08T03:47:50.528Z,10.36
2023-04-08T03:50:39.849Z,10.36
2023-04-08T03:53:29.511Z,10.34
2023-04-08T03:56:21.117Z,10.29
2023-04-08T03:59:13.117Z,10.26
2023-04-08T04:02:06.189Z,10.19
2023-04-08T04:04:55.234Z,10.21
2023-04-08T04:07:44.524Z,10.17
2023-04-08T04:10:33.705Z,10.18
2023-04-08T04:13:22.963Z,10.14
2023-04-08T04:16:12.286Z,10.10
2023-04-08T04:19:05.748Z,10.10
2023-04-08T04:21:54.980Z,10.11
2023-04-08T04:24:50.873Z,10.19
2023-04-08T04:27:40.448Z,10.17
2023-04-08T04:30:33.124Z,10.09
2023-04-08T04:33:24.304Z,10.19
2023-04-08T04:36:14.916Z,10.18
2023-04-08T04:39:04.294Z,10.09
2023-04-08T04:41:53.464Z,10.11
2023-04-08T04:44:42.630Z,10.15
2023-04-08T04:47:32.841Z,10.15
2023-04-08T04:50:22.257Z,10.13
2023-04-08T04:53:12.779Z,10.07
2023-04-08T04:56:02.548Z,10.05
2023-04-08T04:58:51.984Z,10.04
2023-04-08T05:01:41.732Z,10.06
2023-04-08T05:04:31.027Z,9.98
2023-04-08T05:07:20.329Z,10.05
2023-04-08T05:10:12.544Z,10.03
2023-04-08T05:13:01.974Z,10.02
2023-04-08T05:15:51.143Z,10.01
2023-04-08T05:18:40.450Z,9.98
2023-04-08T05:21:29.686Z,9.95
2023-04-08T05:24:18.973Z,9.95
2023-04-08T05:27:09.632Z,9.92
2023-04-08T05:29:58.981Z,9.90
2023-04-08T05:32:48.211Z,9.91
2023-04-08T05:35:37.682Z,9.89
2023-04-08T05:38:28.408Z,9.82
2023-04-08T05:41:18.484Z,9.82
2023-04-08T05:44:09.126Z,9.84
2023-04-08T05:46:58.510Z,9.80
2023-04-08T05:49:48.889Z,9.78
2023-04-08T05:52:38.916Z,9.77
2023-04-08T05:55:28.579Z,9.74
2023-04-08T05:58:17.731Z,9.75
2023-04-08T06:01:08.398Z,9.75
2023-04-08T06:03:57.891Z,9.75
2023-04-08T06:06:47.247Z,9.73
2023-04-08T06:09:38.239Z,9.72
2023-04-08T06:12:27.430Z,9.79
2023-04-08T06:15:16.743Z,9.83
2023-04-08T06:18:07.363Z,9.87
2023-04-08T06:20:56.630Z,9.82
2023-04-08T06:23:46.096Z,9.94
2023-04-08T06:26:35.272Z,10.02
2023-04-08T06:29:24.817Z,10.05
2023-04-08T06:32:14.383Z,10.12
2023-04-08T06:35:05.266Z,10.14
2023-04-08T06:37:54.455Z,10.19
2023-04-08T06:40:43.650Z,10.14
2023-04-08T06:43:32.937Z,10.21
2023-04-08T06:46:22.359Z,10.28
2023-04-08T06:49:11.575Z,10.31
2023-04-08T06:52:02.201Z,10.35
2023-04-08T06:54:51.480Z,10.37
2023-04-08T06:57:43.675Z,10.42
2023-04-08T07:00:32.827Z,10.41
2023-04-08T07:03:22.490Z,10.45
2023-04-08T07:06:11.903Z,10.50
2023-04-08T07:09:02.531Z,10.48
2023-04-08T07:11:51.738Z,10.54
2023-04-08T07:14:41.169Z,10.65
2023-04-08T07:17:30.724Z,10.75
2023-04-08T07:20:20.057Z,10.87
2023-04-08T07:23:09.221Z,11.05
2023-04-08T07:26:04.681Z,11.30
2023-04-08T07:28:53.802Z,11.60
2023-04-08T07:31:44.760Z,11.84
2023-04-08T07:34:37.148Z,11.96
2023-04-08T07:37:26.487Z,11.96
2023-04-08T07:40:16.119Z,11.94
2023-04-08T07:43:06.906Z,11.89
2023-04-08T07:46:02.833Z,11.96
2023-04-08T07:48:53.206Z,12.32
2023-04-08T07:51:42.517Z,12.62
2023-04-08T07:54:34.345Z,12.71
2023-04-08T07:57:23.514Z,12.79
2023-04-08T08:00:21.013Z,12.80
2023-04-08T08:03:10.605Z,12.91
2023-04-08T08:05:59.932Z,13.27
2023-04-08T08:08:49.089Z,13.88
2023-04-08T08:11:41.461Z,14.27
2023-04-08T08:14:30.657Z,14.47
2023-04-08T08:17:21.311Z,14.56
2023-04-08T08:20:11.653Z,14.49
2023-04-08T08:23:01.029Z,14.47
2023-04-08T08:25:50.312Z,14.33
2023-04-08T08:28:40.434Z,14.31
2023-04-08T08:31:30.677Z,14.21
2023-04-08T08:34:31.587Z,14.13
2023-04-08T08:37:22.065Z,14.16
2023-04-08T08:40:12.873Z,14.44
2023-04-08T08:43:02.503Z,14.73
2023-04-08T08:45:51.821Z,15.08
2023-04-08T08:48:41.463Z,15.57
2023-04-08T08:51:32.980Z,16.10
2023-04-08T08:54:22.332Z,16.74
2023-04-08T08:57:20.019Z,17.10
2023-04-08T09:00:11.017Z,17.54
2023-04-08T09:03:17.925Z,18.11
2023-04-08T09:06:07.418Z,18.63
2023-04-08T09:08:58.093Z,19.04
2023-04-08T09:11:48.743Z,19.31
2023-04-08T09:14:38.387Z,19.45
2023-04-08T09:17:35.357Z,19.78
2023-04-08T09:20:25.812Z,19.98
2023-04-08T09:23:14.991Z,20.14
2023-04-08T09:26:10.554Z,20.19
2023-04-08T09:29:11.090Z,20.09
2023-04-08T09:32:08.122Z,19.73
2023-04-08T09:34:57.473Z,19.26
2023-04-08T09:37:46.794Z,18.77
2023-04-08T09:40:37.772Z,18.28
2023-04-08T09:43:28.561Z,17.94
2023-04-08T09:46:19.698Z,17.41
2023-04-08T09:49:13.929Z,17.13
2023-04-08T09:52:09.769Z,16.89
2023-04-08T09:55:04.159Z,16.66
2023-04-08T09:57:59.011Z,16.48
2023-04-08T10:00:53.524Z,16.35
2023-04-08T10:03:51.489Z,16.17
2023-04-08T10:06:42.844Z,16.21
2023-04-08T10:09:32.970Z,16.14
2023-04-08T10:12:22.451Z,16.61
2023-04-08T10:15:29.430Z,17.56
2023-04-08T10:18:35.528Z,18.04
2023-04-08T10:21:36.225Z,18.10
2023-04-08T10:24:26.079Z,18.06
2023-04-08T10:27:42.192Z,18.13
2023-04-08T10:30:44.941Z,18.60
2023-04-08T10:33:37.823Z,19.04
2023-04-08T10:36:29.436Z,19.77
2023-04-08T10:39:19.283Z,20.36
2023-04-08T10:42:10.708Z,20.42
2023-04-08T10:45:03.494Z,20.66
2023-04-08T10:47:52.846Z,21.10
2023-04-08T10:50:43.591Z,21.67
2023-04-08T10:53:35.830Z,22.05
2023-04-08T10:56:26.029Z,22.20
2023-04-08T10:59:17.798Z,22.12
2023-04-08T11:02:07.241Z,22.11
2023-04-08T11:04:56.463Z,21.90
2023-04-08T11:07:47.066Z,21.80
2023-04-08T11:10:39.898Z,21.87
2023-04-08T11:13:29.171Z,21.99
2023-04-08T11:16:18.814Z,22.20
2023-04-08T11:19:09.035Z,22.37
2023-04-08T11:21:58.333Z,22.59
2023-04-08T11:24:49.240Z,22.81
2023-04-08T11:27:39.688Z,23.08
2023-04-08T11:30:29.949Z,23.10
2023-04-08T11:33:19.155Z,23.22
2023-04-08T11:36:09.730Z,23.12
2023-04-08T11:38:59.056Z,23.13
2023-04-08T11:41:50.178Z,23.55
2023-04-08T11:44:39.520Z,23.70
2023-04-08T11:47:33.594Z,23.83
2023-04-08T11:50:30.075Z,23.71
2023-04-08T11:53:21.010Z,23.58
2023-04-08T11:56:21.418Z,23.42
2023-04-08T11:59:12.107Z,23.54
2023-04-08T12:02:02.251Z,23.68
2023-04-08T12:04:52.472Z,23.75
2023-04-08T12:07:41.905Z,23.76
2023-04-08T12:10:31.645Z,23.49
2023-04-08T12:13:21.043Z,23.72
2023-04-08T12:16:12.569Z,23.91
2023-04-08T12:19:02.065Z,24.09
2023-04-08T12:21:51.355Z,24.31
2023-04-08T12:24:40.482Z,24.46
2023-04-08T12:27:29.691Z,24.59
2023-04-08T12:30:19.328Z,24.64
2023-04-08T12:33:09.934Z,24.61
2023-04-08T12:35:59.616Z,24.61
2023-04-08T12:38:49.416Z,23.93
2023-04-08T12:41:38.818Z,23.40
2023-04-08T12:44:28.395Z,22.98
2023-04-08T12:47:18.454Z,22.64
2023-04-08T12:50:10.747Z,22.10
2023-04-08T12:53:00.119Z,21.85
2023-04-08T12:55:50.194Z,21.38
2023-04-08T12:58:39.607Z,21.01
2023-04-08T13:01:28.970Z,20.98
2023-04-08T13:04:19.938Z,20.80
2023-04-08T13:07:10.557Z,20.47
2023-04-08T13:09:59.748Z,20.18
2023-04-08T13:12:49.051Z,19.72
2023-04-08T13:15:38.544Z,19.58
2023-04-08T13:18:27.814Z,19.55
2023-04-08T13:21:17.136Z,19.36
2023-04-08T13:24:08.238Z,19.54
2023-04-08T13:26:57.687Z,19.46
2023-04-08T13:29:46.960Z,19.23
2023-04-08T13:32:36.660Z,19.06
2023-04-08T13:35:26.968Z,18.93
2023-04-08T13:38:16.285Z,18.73
2023-04-08T13:41:07.504Z,18.58
2023-04-08T13:43:56.890Z,18.52
2023-04-08T13:46:46.234Z,18.59
2023-04-08T13:49:35.478Z,18.86
2023-04-08T13:52:24.690Z,19.24
2023-04-08T13:55:13.953Z,19.89
2023-04-08T13:58:11.295Z,20.52
2023-04-08T14:01:07.065Z,21.08
2023-04-08T14:03:56.482Z,21.24
2023-04-08T14:06:45.757Z,20.72
2023-04-08T14:09:35.899Z,21.06
2023-04-08T14:12:25.096Z,20.86
2023-04-08T14:15:15.773Z,20.42
2023-04-08T14:18:05.093Z,20.06
2023-04-08T14:20:54.329Z,19.77
2023-04-08T14:23:43.503Z,19.43
2023-04-08T14:26:35.874Z,19.11
2023-04-08T14:29:26.621Z,18.86
2023-04-08T14:32:18.278Z,18.77
2023-04-08T14:35:08.886Z,18.68
2023-04-08T14:37:58.274Z,18.48
2023-04-08T14:40:47.530Z,18.39
2023-04-08T14:43:36.818Z,18.30
2023-04-08T14:46:29.165Z,18.18
2023-04-08T14:49:20.079Z,18.13
2023-04-08T14:52:09.334Z,18.03
2023-04-08T14:54:58.547Z,18.00
2023-04-08T14:57:47.917Z,17.93
2023-04-08T15:00:37.842Z,17.78
2023-04-08T15:03:27.626Z,17.86
2023-04-08T15:06:21.927Z,17.86
2023-04-08T15:09:11.338Z,17.78
2023-04-08T15:12:01.411Z,17.83
2023-04-08T15:14:51.016Z,17.77
2023-04-08T15:17:40.288Z,17.71
2023-04-08T15:20:29.600Z,17.68
2023-04-08T15:23:20.218Z,17.56
2023-04-08T15:26:10.005Z,17.52
2023-04-08T15:28:59.920Z,17.41
2023-04-08T15:31:49.145Z,17.31
2023-04-08T15:34:38.372Z,17.33
2023-04-08T15:37:27.882Z,17.26
2023-04-08T15:40:19.103Z,17.37
2023-04-08T15:43:10.246Z,17.39
2023-04-08T15:45:59.498Z,17.21
2023-04-08T15:48:48.822Z,17.12
2023-04-08T15:51:38.273Z,17.02
2023-04-08T15:54:29.456Z,16.97
2023-04-08T15:57:26.542Z,16.90
2023-04-08T16:00:16.840Z,16.90
2023-04-08T16:03:08.964Z,16.90
2023-04-08T16:05:58.536Z,16.92
2023-04-08T16:08:48.745Z,16.99
2023-04-08T16:11:38.521Z,17.03
2023-04-08T16:14:29.288Z,17.18
2023-04-08T16:17:18.657Z,17.26
2023-04-08T16:20:09.181Z,17.34
2023-04-08T16:22:58.397Z,17.52
2023-04-08T16:25:47.858Z,17.63
2023-04-08T16:28:39.592Z,17.66
2023-04-08T16:34:20.324Z,17.60
2023-04-08T16:37:09.624Z,17.54
2023-04-08T16:39:59.066Z,17.47
2023-04-08T16:42:48.458Z,17.43
2023-04-08T16:45:39.217Z,17.34
2023-04-08T16:48:29.871Z,17.43
2023-04-08T16:51:19.142Z,17.38
2023-04-08T16:54:08.616Z,17.29
2023-04-08T16:56:58.304Z,17.30
2023-04-08T16:59:47.658Z,17.22
2023-04-08T17:02:37.199Z,17.13
2023-04-08T17:05:28.473Z,17.08
2023-04-08T17:08:18.857Z,17.08
2023-04-08T17:11:10.458Z,17.06
2023-04-08T17:14:00.531Z,16.97
2023-04-08T17:16:57.111Z,16.89
2023-04-08T17:19:52.054Z,16.78
2023-04-08T17:22:43.828Z,16.81
2023-04-08T17:25:33.084Z,16.72
2023-04-08T17:28:24.718Z,16.65
2023-04-08T17:31:13.931Z,16.62
2023-04-08T17:34:06.060Z,16.60
2023-04-08T17:36:55.518Z,16.59
2023-04-08T17:39:48.946Z,16.53
2023-04-08T17:42:40.493Z,16.41
2023-04-08T17:45:29.660Z,16.40
2023-04-08T17:48:21.205Z,16.22
2023-04-08T17:51:10.424Z,16.35
2023-04-08T17:53:59.729Z,16.32
2023-04-08T17:56:50.574Z,16.23
2023-04-08T17:59:39.763Z,16.25
2023-04-08T18:02:29.221Z,16.17
2023-04-08T18:05:18.606Z,16.16
2023-04-08T18:08:07.943Z,16.07
2023-04-08T18:10:57.154Z,16.11
2023-04-08T18:13:49.404Z,16.02
2023-04-08T18:16:38.808Z,15.86
2023-04-08T18:19:28.103Z,15.84
2023-04-08T18:22:17.657Z,15.80
2023-04-08T18:25:07.771Z,15.75
2023-04-08T18:27:56.968Z,15.75
2023-04-08T18:30:51.601Z,15.72
2023-04-08T18:33:40.863Z,15.62
2023-04-08T18:36:30.053Z,15.54
2023-04-08T18:39:19.273Z,15.44
2023-04-08T18:42:08.498Z,15.03
2023-04-08T18:44:58.016Z,15.24
2023-04-08T18:47:48.644Z,15.10
2023-04-08T18:50:37.833Z,15.03
2023-04-08T18:53:27.158Z,14.98
2023-04-08T18:56:17.556Z,14.96
2023-04-08T18:59:07.412Z,14.86
2023-04-08T19:01:57.320Z,14.91
2023-04-08T19:04:48.063Z,14.84
2023-04-08T19:07:37.303Z,14.79
2023-04-08T19:10:26.553Z,14.72
2023-04-08T19:13:15.902Z,14.62
2023-04-08T19:16:05.443Z,14.64
2023-04-08T19:18:54.972Z,14.62
2023-04-08T19:21:45.581Z,14.54
2023-04-08T19:24:34.859Z,14.42
2023-04-08T19:27:24.056Z,14.41
2023-04-08T19:30:13.922Z,14.37
2023-04-08T19:33:03.126Z,14.28
2023-04-08T19:35:52.416Z,14.30
2023-04-08T19:38:43.003Z,14.23
2023-04-08T19:41:32.274Z,14.21
2023-04-08T19:44:21.515Z,14.24
2023-04-08T19:47:11.028Z,14.22
2023-04-08T19:50:00.444Z,14.20
2023-04-08T19:52:49.753Z,14.18
2023-04-08T19:55:40.435Z,14.15
2023-04-08T19:58:30.996Z,14.20
2023-04-08T20:01:20.329Z,14.15
2023-04-08T20:04:09.634Z,14.09
2023-04-08T20:07:01.296Z,14.06
2023-04-08T20:09:50.548Z,14.06
2023-04-08T20:12:42.022Z,14.04
2023-04-08T20:15:31.225Z,13.98
2023-04-08T20:18:20.400Z,13.98
2023-04-08T20:21:13.923Z,13.99
2023-04-08T20:24:03.297Z,13.94
2023-04-08T20:26:53.543Z,13.91
2023-04-08T20:29:44.162Z,13.91
2023-04-08T20:32:33.449Z,13.87
2023-04-08T20:35:22.993Z,13.74
2023-04-08T20:38:12.262Z,13.87
2023-04-08T20:41:01.540Z,13.83
2023-04-08T20:43:53.614Z,13.84
2023-04-08T20:46:46.352Z,13.83
2023-04-08T20:49:40.025Z,13.82
2023-04-08T20:52:29.461Z,13.79
2023-04-08T20:55:18.868Z,13.77
2023-04-08T20:58:08.151Z,13.71
2023-04-08T21:00:59.797Z,13.67
2023-04-08T21:03:50.897Z,13.64
2023-04-08T21:06:40.764Z,13.59
2023-04-08T21:09:29.934Z,13.58
2023-04-08T21:12:19.168Z,13.58
2023-04-08T21:15:09.835Z,13.60
2023-04-08T21:17:59.185Z,13.53
2023-04-08T21:20:50.161Z,13.54
2023-04-08T21:23:39.586Z,13.54
2023-04-08T21:26:28.818Z,13.58
2023-04-08T21:29:18.035Z,13.59
2023-04-08T21:32:07.659Z,13.58
2023-04-08T21:34:58.699Z,13.50
2023-04-08T21:37:49.413Z,13.47
2023-04-08T21:40:38.592Z,13.38
2023-04-08T21:43:28.634Z,13.49
2023-04-08T21:46:17.971Z,13.41
2023-04-08T21:49:07.197Z,13.51
2023-04-08T21:51:59.484Z,13.51
2023-04-08T21:54:53.570Z,13.53
2023-04-08T21:57:49.260Z,13.42
2023-04-08T22:00:39.009Z,13.44
2023-04-08T22:03:29.680Z,13.40
2023-04-08T22:06:28.975Z,13.35
2023-04-08T22:09:26.204Z,13.37
2023-04-08T22:12:18.668Z,13.35
2023-04-08T22:15:10.107Z,13.37
2023-04-08T22:18:01.934Z,13.22
2023-04-08T22:20:51.452Z,13.28
2023-04-08T22:23:40.983Z,13.40
2023-04-08T22:26:33.376Z,13.39
2023-04-08T22:29:24.622Z,13.36
2023-04-08T22:32:15.717Z,13.42
2023-04-08T22:35:05.875Z,13.46
2023-04-08T22:37:57.268Z,13.47
2023-04-08T22:40:46.660Z,13.38
2023-04-08T22:43:36.610Z,13.36
2023-04-08T22:46:27.594Z,13.43
2023-04-08T22:49:17.014Z,13.45
2023-04-08T22:52:06.306Z,13.48
2023-04-08T22:54:55.631Z,13.43
2023-04-08T22:57:46.557Z,13.39
2023-04-08T23:00:38.054Z,13.38
2023-04-08T23:03:38.094Z,13.36
2023-04-08T23:06:28.956Z,13.26
2023-04-08T23:09:18.236Z,13.28
2023-04-08T23:12:07.702Z,13.26
2023-04-08T23:14:59.370Z,13.25
2023-04-08T23:17:48.632Z,13.17
2023-04-08T23:20:39.448Z,13.16
2023-04-08T23:23:28.789Z,13.16
2023-04-08T23:26:21.371Z,13.08
2023-04-08T23:29:10.821Z,13.01
2023-04-08T23:32:00.143Z,13.10
2023-04-08T23:34:49.418Z,12.97
2023-04-08T23:37:39.985Z,13.02
2023-04-08T23:40:29.269Z,12.98
2023-04-08T23:43:18.441Z,12.94
2023-04-08T23:46:09.504Z,12.84
2023-04-08T23:48:58.764Z,12.79
2023-04-08T23:51:47.941Z,12.78
2023-04-08T23:54:38.470Z,12.73
2023-04-08T23:57:27.684Z,12.52
